createdAt,value
2022-12-08T00:01:28.121Z,-9.36
2022-12-08T00:03:59.205Z,-9.15
2022-12-08T00:06:53.451Z,-9.34
2022-12-08T00:09:39.437Z,-9.20
2022-12-08T00:12:15.392Z,-9.14
2022-12-08T00:14:45.064Z,-9.10
2022-12-08T00:17:14.364Z,-9.15
2022-12-08T00:19:42.936Z,-9.14
2022-12-08T00:22:11.742Z,-9.21
2022-12-08T00:24:40.415Z,-9.14
2022-12-08T00:27:09.365Z,-9.16
2022-12-08T00:29:37.062Z,-9.20
2022-12-08T00:32:05.120Z,-9.28
2022-12-08T00:34:33.523Z,-9.14
2022-12-08T00:37:00.816Z,-9.24
2022-12-08T00:39:28.234Z,-9.08
2022-12-08T00:42:13.805Z,-9.17
2022-12-08T00:44:46.109Z,-9.03
2022-12-08T00:47:14.449Z,-9.29
2022-12-08T00:49:41.701Z,-9.18
2022-12-08T00:52:08.921Z,-9.22
2022-12-08T00:54:35.929Z,-9.23
2022-12-08T00:57:02.923Z,-9.15
2022-12-08T00:59:30.030Z,-9.24
2022-12-08T01:01:57.456Z,-9.34
2022-12-08T01:04:24.709Z,-9.15
2022-12-08T01:06:52.840Z,-9.22
2022-12-08T01:09:19.974Z,-9.09
2022-12-08T01:11:47.574Z,-9.05
2022-12-08T01:14:15.501Z,-9.22
2022-12-08T01:16:43.008Z,-9.21
2022-12-08T01:19:12.251Z,-9.21
2022-12-08T01:21:40.542Z,-9.21
2022-12-08T01:24:10.781Z,-9.24
2022-12-08T01:26:37.906Z,-9.22
2022-12-08T01:29:05.339Z,-9.27
2022-12-08T01:31:32.369Z,-9.32
2022-12-08T01:33:59.320Z,-9.13
2022-12-08T01:36:28.796Z,-9.18
2022-12-08T01:38:58.454Z,-9.35
2022-12-08T01:41:28.290Z,-9.24
2022-12-08T01:44:02.081Z,-9.35
2022-12-08T01:46:32.312Z,-9.22
2022-12-08T01:49:04.778Z,-9.16
2022-12-08T01:51:36.217Z,-9.09
2022-12-08T01:54:06.004Z,-9.17
2022-12-08T01:56:43.605Z,-9.25
2022-12-08T01:59:12.959Z,-9.35
2022-12-08T02:01:40.271Z,-9.13
2022-12-08T02:04:07.299Z,-9.25
2022-12-08T02:06:40.066Z,-9.29
2022-12-08T02:09:08.429Z,-9.33
2022-12-08T02:11:35.558Z,-9.25
2022-12-08T02:14:08.445Z,-9.31
2022-12-08T02:17:05.242Z,-9.16
2022-12-08T02:19:35.173Z,-9.19
2022-12-08T02:22:16.863Z,-9.24
2022-12-08T02:24:53.112Z,-9.15
2022-12-08T02:27:58.168Z,-9.21
2022-12-08T02:30:56.248Z,-9.19
2022-12-08T02:33:57.429Z,-9.13
2022-12-08T02:36:40.927Z,-9.33
2022-12-08T02:39:42.081Z,-9.10
2022-12-08T02:42:21.416Z,-9.05
2022-12-08T02:44:51.970Z,-9.04
2022-12-08T02:47:23.485Z,-9.04
2022-12-08T02:49:50.696Z,-9.20
2022-12-08T02:52:18.153Z,-9.06
2022-12-08T02:54:55.930Z,-9.18
2022-12-08T02:57:31.329Z,-9.04
2022-12-08T03:00:14.446Z,-9.23
2022-12-08T03:03:02.959Z,-9.17
2022-12-08T03:05:51.400Z,-9.08
2022-12-08T03:08:51.924Z,-9.34
2022-12-08T03:11:30.242Z,-9.18
2022-12-08T03:14:01.202Z,-9.21
2022-12-08T03:16:31.005Z,-9.19
2022-12-08T03:19:09.356Z,-9.33
2022-12-08T03:21:39.054Z,-9.21
2022-12-08T03:24:08.305Z,-9.23
2022-12-08T03:26:39.160Z,-9.27
2022-12-08T03:29:09.131Z,-9.41
2022-12-08T03:31:42.073Z,-9.13
2022-12-08T03:34:12.315Z,-9.32
2022-12-08T03:36:41.007Z,-9.27
2022-12-08T03:39:10.324Z,-9.29
2022-12-08T03:41:38.147Z,-9.26
2022-12-08T03:44:05.484Z,-9.22
2022-12-08T03:46:33.855Z,-9.20
2022-12-08T03:49:01.685Z,-9.09
2022-12-08T03:54:10.257Z,-9.25
2022-12-08T03:56:41.281Z,-9.23
2022-12-08T03:59:09.841Z,-9.36
2022-12-08T04:01:37.060Z,-9.32
2022-12-08T04:04:04.370Z,-9.35
2022-12-08T04:06:31.714Z,-9.25
2022-12-08T04:11:40.939Z,-9.11
2022-12-08T04:14:08.260Z,-9.05
2022-12-08T04:16:35.559Z,-9.18
2022-12-08T04:19:04.162Z,-9.09
2022-12-08T04:21:47.121Z,-9.09
2022-12-08T04:24:14.613Z,-9.19
2022-12-08T04:26:41.959Z,-9.21
2022-12-08T04:29:10.917Z,-9.20
2022-12-08T04:31:42.953Z,-9.20
2022-12-08T04:34:17.711Z,-9.23
2022-12-08T04:36:47.620Z,-9.19
2022-12-08T04:39:15.075Z,-9.34
2022-12-08T04:41:43.523Z,-9.33
2022-12-08T04:46:54.555Z,-9.23
2022-12-08T04:49:22.103Z,-9.25
2022-12-08T04:54:31.402Z,-9.26
2022-12-08T04:59:42.311Z,-9.28
2022-12-08T05:02:09.797Z,-9.22
2022-12-08T05:04:38.198Z,-9.30
2022-12-08T05:07:06.022Z,-9.23
2022-12-08T05:12:16.025Z,-9.22
2022-12-08T05:17:31.119Z,-9.28
2022-12-08T05:22:48.751Z,-9.36
2022-12-08T05:25:16.105Z,-9.29
2022-12-08T05:27:43.572Z,-9.20
2022-12-08T05:30:10.895Z,-9.27
2022-12-08T05:35:19.640Z,-9.29
2022-12-08T05:37:59.111Z,-9.22
2022-12-08T05:40:26.317Z,-9.21
2022-12-08T05:45:45.192Z,-9.13
2022-12-08T05:48:13.567Z,-9.49
2022-12-08T05:50:45.631Z,-9.38
2022-12-08T05:53:12.887Z,-9.32
2022-12-08T05:58:24.091Z,-9.35
2022-12-08T06:00:51.675Z,-9.14
2022-12-08T06:03:19.055Z,-9.30
2022-12-08T06:05:47.161Z,-9.10
2022-12-08T06:08:15.152Z,-9.25
2022-12-08T06:10:43.961Z,-9.25
2022-12-08T06:13:11.326Z,-9.13
2022-12-08T06:15:39.216Z,-9.19
2022-12-08T06:18:06.948Z,-9.24
2022-12-08T06:20:34.696Z,-9.23
2022-12-08T06:23:02.244Z,-9.17
2022-12-08T06:25:29.301Z,-9.30
2022-12-08T06:28:06.238Z,-9.24
2022-12-08T06:30:33.603Z,-9.34
2022-12-08T06:33:00.611Z,-9.31
2022-12-08T06:35:27.696Z,-9.40
2022-12-08T06:37:55.801Z,-9.28
2022-12-08T06:40:23.225Z,-9.33
2022-12-08T06:42:50.315Z,-9.35
2022-12-08T06:45:18.850Z,-9.14
2022-12-08T06:47:45.954Z,-9.25
2022-12-08T06:50:14.027Z,-9.02
2022-12-08T06:52:53.250Z,-9.14
2022-12-08T06:55:57.260Z,-9.08
2022-12-08T06:58:14.053Z,-9.13
2022-12-08T07:00:42.327Z,-8.87
2022-12-08T07:03:11.739Z,-9.03
2022-12-08T07:05:39.574Z,-8.85
2022-12-08T07:08:08.844Z,-8.93
2022-12-08T07:10:37.301Z,-8.91
2022-12-08T07:13:04.571Z,-8.92
2022-12-08T07:15:31.705Z,-8.95
2022-12-08T07:18:00.421Z,-8.68
2022-12-08T07:20:28.344Z,-8.91
2022-12-08T07:22:56.065Z,-8.88
2022-12-08T07:25:24.057Z,-8.93
2022-12-08T07:27:51.862Z,-8.88
2022-12-08T07:30:19.554Z,-8.59
2022-12-08T07:32:47.981Z,-8.68
2022-12-08T07:35:15.230Z,-8.68
2022-12-08T07:37:42.260Z,-8.62
2022-12-08T07:40:10.236Z,-8.69
2022-12-08T07:42:37.661Z,-8.69
2022-12-08T07:45:05.439Z,-8.59
2022-12-08T07:47:32.604Z,-8.49
2022-12-08T07:49:59.499Z,-8.45
2022-12-08T07:52:26.553Z,-8.49
2022-12-08T07:54:53.763Z,-8.36
2022-12-08T07:57:22.017Z,-8.32
2022-12-08T07:59:49.077Z,-8.36
2022-12-08T08:02:25.918Z,-8.28
2022-12-08T08:07:36.814Z,-8.35
2022-12-08T08:10:05.582Z,-8.34
2022-12-08T08:12:33.473Z,-8.28
2022-12-08T08:15:10.499Z,-8.22
2022-12-08T08:17:38.409Z,-8.31
2022-12-08T08:20:09.224Z,-8.23
2022-12-08T08:22:36.952Z,-8.40
2022-12-08T08:25:04.798Z,-8.09
2022-12-08T08:27:31.945Z,-8.31
2022-12-08T08:29:59.835Z,-8.07
2022-12-08T08:32:26.868Z,-8.20
2022-12-08T08:34:53.909Z,-8.16
2022-12-08T08:37:21.325Z,-8.19
2022-12-08T08:39:49.094Z,-8.25
2022-12-08T08:42:16.906Z,-8.32
2022-12-08T08:44:43.999Z,-8.15
2022-12-08T08:47:11.206Z,-7.99
2022-12-08T08:49:38.921Z,-8.11
2022-12-08T08:52:06.651Z,-7.93
2022-12-08T08:54:35.071Z,-8.00
2022-12-08T08:57:03.793Z,-7.95
2022-12-08T08:59:39.792Z,-8.20
2022-12-08T09:02:07.511Z,-7.99
2022-12-08T09:04:35.201Z,-8.04
2022-12-08T09:07:02.293Z,-8.03
2022-12-08T09:09:36.730Z,-8.10
2022-12-08T09:12:06.707Z,-8.01
2022-12-08T09:14:34.828Z,-8.18
2022-12-08T09:17:02.352Z,-8.09
2022-12-08T09:19:30.005Z,-8.06
2022-12-08T09:21:59.229Z,-8.08
2022-12-08T09:24:29.415Z,-8.18
2022-12-08T09:26:56.743Z,-8.08
2022-12-08T09:29:26.863Z,-8.10
2022-12-08T09:31:57.385Z,-7.95
2022-12-08T09:34:34.457Z,-7.91
2022-12-08T09:37:02.572Z,-7.94
2022-12-08T09:42:14.588Z,-7.89
2022-12-08T09:45:13.784Z,-7.92
2022-12-08T09:47:45.930Z,-7.87
2022-12-08T09:50:19.373Z,-7.92
2022-12-08T09:52:59.939Z,-7.73
2022-12-08T09:55:52.918Z,-7.69
2022-12-08T09:58:45.637Z,-7.81
2022-12-08T10:01:20.234Z,-7.81
2022-12-08T10:03:47.942Z,-7.84
2022-12-08T10:06:33.812Z,-7.58
2022-12-08T10:09:37.401Z,-7.53
2022-12-08T10:12:16.925Z,-7.58
2022-12-08T10:14:56.640Z,-7.74
2022-12-08T10:17:41.642Z,-7.66
2022-12-08T10:20:46.636Z,-7.51
2022-12-08T10:23:14.569Z,-7.39
2022-12-08T10:25:46.346Z,-7.50
2022-12-08T10:28:16.091Z,-7.55
2022-12-08T10:30:43.678Z,-7.47
2022-12-08T10:33:20.137Z,-7.51
2022-12-08T10:35:49.057Z,-7.31
2022-12-08T10:38:36.306Z,-7.24
2022-12-08T10:41:09.617Z,-7.30
2022-12-08T10:43:42.781Z,-7.32
2022-12-08T10:46:18.817Z,-7.27
2022-12-08T10:49:10.596Z,-7.30
2022-12-08T10:51:43.431Z,-7.29
2022-12-08T10:54:34.322Z,-7.20
2022-12-08T10:57:01.632Z,-7.29
2022-12-08T10:59:29.388Z,-7.38
2022-12-08T11:01:57.707Z,-7.38
2022-12-08T11:04:39.205Z,-7.50
2022-12-08T11:07:12.085Z,-7.40
2022-12-08T11:12:33.127Z,-7.19
2022-12-08T11:15:05.977Z,-7.17
2022-12-08T11:17:41.421Z,-7.11
2022-12-08T11:20:11.645Z,-7.08
2022-12-08T11:22:43.134Z,-7.08
2022-12-08T11:25:27.892Z,-7.12
2022-12-08T11:27:59.823Z,-7.16
2022-12-08T11:30:42.661Z,-7.25
2022-12-08T11:36:05.103Z,-7.06
2022-12-08T11:38:34.362Z,-7.00
2022-12-08T11:41:15.792Z,-7.02
2022-12-08T11:43:52.005Z,-6.94
2022-12-08T11:46:43.087Z,-7.00
2022-12-08T11:49:13.582Z,-6.96
2022-12-08T11:54:34.737Z,-7.29
2022-12-08T11:57:06.316Z,-7.26
2022-12-08T11:59:44.576Z,-7.25
2022-12-08T12:02:18.280Z,-7.25
2022-12-08T12:04:45.452Z,-7.26
2022-12-08T12:07:26.416Z,-7.23
2022-12-08T12:10:12.483Z,-7.15
2022-12-08T12:13:13.033Z,-7.25
2022-12-08T12:15:46.597Z,-7.20
2022-12-08T12:18:26.628Z,-7.36
2022-12-08T12:20:56.599Z,-7.25
2022-12-08T12:23:40.793Z,-7.28
2022-12-08T12:26:17.221Z,-7.19
2022-12-08T12:29:06.269Z,-7.08
2022-12-08T12:31:48.745Z,-7.14
2022-12-08T12:34:31.376Z,-7.21
2022-12-08T12:37:11.197Z,-7.11
2022-12-08T12:39:58.532Z,-7.17
2022-12-08T12:42:46.959Z,-7.05
2022-12-08T12:45:18.330Z,-7.10
2022-12-08T12:47:52.568Z,-7.06
2022-12-08T12:53:16.737Z,-6.95
2022-12-08T12:55:57.763Z,-6.91
2022-12-08T12:58:30.402Z,-6.97
2022-12-08T13:01:13.606Z,-7.00
2022-12-08T13:03:44.706Z,-7.08
2022-12-08T13:06:16.480Z,-7.30
2022-12-08T13:08:54.103Z,-7.21
2022-12-08T13:11:23.415Z,-7.20
2022-12-08T13:14:05.974Z,-7.06
2022-12-08T13:16:39.636Z,-7.28
2022-12-08T13:19:16.488Z,-7.22
2022-12-08T13:30:37.893Z,-6.95
2022-12-08T13:33:19.265Z,-7.11
2022-12-08T13:36:23.238Z,-7.04
2022-12-08T13:38:56.707Z,-7.05
2022-12-08T13:41:37.187Z,-7.05
2022-12-08T13:47:32.958Z,-6.97
2022-12-08T14:01:33.441Z,-7.01
2022-12-08T14:06:52.099Z,-6.94
2022-12-08T14:09:23.265Z,-6.83
2022-12-08T14:12:04.420Z,-6.78
2022-12-08T14:17:20.004Z,-6.82
2022-12-08T14:22:57.672Z,-6.82
2022-12-08T14:25:28.240Z,-6.84
2022-12-08T14:28:05.930Z,-7.01
2022-12-08T14:30:36.877Z,-6.92
2022-12-08T14:35:56.088Z,-6.81
2022-12-08T14:38:25.845Z,-6.79
2022-12-08T14:41:08.505Z,-6.65
2022-12-08T14:43:36.229Z,-6.81
2022-12-08T14:46:19.812Z,-6.85
2022-12-08T14:49:02.799Z,-6.80
2022-12-08T14:51:35.111Z,-6.66
2022-12-08T14:54:18.515Z,-6.79
2022-12-08T14:59:31.837Z,-6.68
2022-12-08T15:02:24.419Z,-6.67
2022-12-08T15:04:59.913Z,-6.65
2022-12-08T15:07:32.246Z,-6.75
2022-12-08T15:13:05.463Z,-6.67
2022-12-08T15:18:37.724Z,-6.40
2022-12-08T15:21:13.620Z,-6.60
2022-12-08T15:23:50.498Z,-6.64
2022-12-08T15:29:26.223Z,-6.56
2022-12-08T15:32:01.572Z,-6.66
2022-12-08T15:34:36.028Z,-6.47
2022-12-08T15:37:04.772Z,-6.64
2022-12-08T15:42:19.789Z,-6.52
2022-12-08T15:44:47.684Z,-6.51
2022-12-08T15:47:24.401Z,-6.55
2022-12-08T15:50:20.200Z,-6.60
2022-12-08T15:55:38.733Z,-6.74
2022-12-08T16:00:52.881Z,-6.59
2022-12-08T16:09:23.634Z,-6.50
2022-12-08T16:12:18.323Z,-6.34
2022-12-08T16:17:32.815Z,-6.40
2022-12-08T16:25:36.343Z,-6.29
2022-12-08T16:33:45.756Z,-6.28
2022-12-08T16:36:22.612Z,-6.24
2022-12-08T16:42:21.457Z,-6.36
2022-12-08T16:47:33.774Z,-6.24
2022-12-08T16:52:52.076Z,-6.26
2022-12-08T17:06:20.264Z,-6.25
2022-12-08T17:11:42.604Z,-6.25
2022-12-08T17:35:53.645Z,-6.19
2022-12-08T17:38:35.586Z,-6.10
2022-12-08T17:57:48.477Z,-6.26
2022-12-08T18:03:06.455Z,-6.26
2022-12-08T18:05:44.916Z,-6.11
2022-12-08T18:16:25.152Z,-6.23
2022-12-08T18:24:23.196Z,-6.08
2022-12-08T18:26:52.459Z,-6.04
2022-12-08T18:29:21.006Z,-6.12
2022-12-08T18:31:49.136Z,-6.11
2022-12-08T18:34:19.025Z,-5.95
2022-12-08T18:36:46.258Z,-6.02
2022-12-08T18:39:26.552Z,-5.91
2022-12-08T18:41:55.721Z,-6.01
2022-12-08T18:44:23.226Z,-5.94
2022-12-08T18:46:51.209Z,-5.97
2022-12-08T18:49:20.285Z,-6.06
2022-12-08T18:51:47.755Z,-5.91
2022-12-08T18:54:15.330Z,-5.80
2022-12-08T18:56:42.553Z,-5.91
2022-12-08T18:59:11.385Z,-5.78
2022-12-08T19:01:39.951Z,-5.86
2022-12-08T19:04:27.960Z,-5.74
2022-12-08T19:06:56.586Z,-5.95
2022-12-08T19:09:35.082Z,-5.98
2022-12-08T19:12:02.554Z,-5.89
2022-12-08T19:14:40.263Z,-5.78
2022-12-08T19:22:36.703Z,-5.73
2022-12-08T19:25:05.098Z,-5.77
2022-12-08T19:27:36.729Z,-5.96
2022-12-08T19:30:04.541Z,-5.82
2022-12-08T19:35:15.414Z,-5.87
2022-12-08T19:37:43.109Z,-5.84
2022-12-08T19:40:31.961Z,-5.75
2022-12-08T19:43:18.246Z,-5.90
2022-12-08T19:45:45.478Z,-5.79
2022-12-08T19:48:14.239Z,-5.96
2022-12-08T19:50:42.500Z,-5.85
2022-12-08T19:53:14.950Z,-5.75
2022-12-08T19:55:44.117Z,-5.66
2022-12-08T20:00:56.772Z,-5.71
2022-12-08T20:03:23.945Z,-5.77
2022-12-08T20:05:53.347Z,-5.73
2022-12-08T20:08:20.856Z,-5.76
2022-12-08T20:10:48.185Z,-5.66
2022-12-08T20:13:35.564Z,-5.78
2022-12-08T20:16:02.761Z,-5.60
2022-12-08T20:18:30.067Z,-5.66
2022-12-08T20:20:58.350Z,-5.65
2022-12-08T20:23:25.686Z,-5.82
2022-12-08T20:25:53.233Z,-5.90
2022-12-08T20:28:21.149Z,-5.73
2022-12-08T20:30:49.724Z,-5.89
2022-12-08T20:33:18.603Z,-5.70
2022-12-08T20:35:47.680Z,-5.93
2022-12-08T20:38:14.933Z,-5.86
2022-12-08T20:40:47.429Z,-5.64
2022-12-08T20:43:14.977Z,-5.79
2022-12-08T20:45:42.083Z,-5.63
2022-12-08T20:48:09.037Z,-5.65
2022-12-08T20:50:36.244Z,-5.75
2022-12-08T20:53:04.214Z,-5.71
2022-12-08T20:55:31.503Z,-5.66
2022-12-08T20:57:58.850Z,-5.74
2022-12-08T21:00:27.381Z,-5.62
2022-12-08T21:02:56.746Z,-5.58
2022-12-08T21:05:25.429Z,-5.54
2022-12-08T21:07:53.085Z,-5.54
2022-12-08T21:10:20.404Z,-5.37
2022-12-08T21:12:47.676Z,-5.39
2022-12-08T21:15:14.672Z,-5.31
2022-12-08T21:17:41.966Z,-5.34
2022-12-08T21:20:10.129Z,-5.40
2022-12-08T21:22:37.713Z,-5.60
2022-12-08T21:25:07.368Z,-5.49
2022-12-08T21:27:34.614Z,-5.31
2022-12-08T21:30:01.694Z,-5.28
2022-12-08T21:32:32.450Z,-5.33
2022-12-08T21:34:59.622Z,-5.33
2022-12-08T21:37:26.757Z,-5.31
2022-12-08T21:39:53.789Z,-5.39
2022-12-08T21:42:40.086Z,-5.30
2022-12-08T21:45:07.765Z,-5.33
2022-12-08T21:47:36.737Z,-5.38
2022-12-08T21:50:04.669Z,-5.28
2022-12-08T21:52:32.841Z,-5.45
2022-12-08T21:55:00.419Z,-5.30
2022-12-08T21:57:27.585Z,-5.26
2022-12-08T21:59:55.312Z,-5.26
2022-12-08T22:02:23.226Z,-5.42
2022-12-08T22:04:52.942Z,-5.37
2022-12-08T22:07:34.979Z,-5.31
2022-12-08T22:10:02.551Z,-5.56
2022-12-08T22:12:31.496Z,-5.27
2022-12-08T22:14:58.827Z,-5.47
2022-12-08T22:17:27.295Z,-5.44
2022-12-08T22:19:54.431Z,-5.32
2022-12-08T22:22:21.538Z,-5.27
2022-12-08T22:24:49.140Z,-5.25
2022-12-08T22:27:17.326Z,-5.38
2022-12-08T22:29:45.239Z,-5.35
2022-12-08T22:32:12.449Z,-5.46
2022-12-08T22:34:39.651Z,-5.34
2022-12-08T22:37:07.233Z,-5.29
2022-12-08T22:39:35.842Z,-5.42
2022-12-08T22:42:03.355Z,-5.46
2022-12-08T22:44:30.630Z,-5.29
2022-12-08T22:46:57.882Z,-5.40
2022-12-08T22:49:25.866Z,-5.38
2022-12-08T22:51:53.703Z,-5.47
2022-12-08T22:54:22.076Z,-5.26
2022-12-08T22:56:49.265Z,-5.37
2022-12-08T22:59:16.345Z,-5.25
2022-12-08T23:01:44.891Z,-5.27
2022-12-08T23:04:17.377Z,-5.28
2022-12-08T23:06:45.111Z,-5.27
2022-12-08T23:09:12.608Z,-5.39
2022-12-08T23:11:40.191Z,-5.27
2022-12-08T23:14:07.430Z,-5.27
2022-12-08T23:16:34.948Z,-5.20
2022-12-08T23:19:02.424Z,-5.31
2022-12-08T23:21:29.835Z,-5.35
2022-12-08T23:23:57.233Z,-5.34
2022-12-08T23:26:27.322Z,-5.20
2022-12-08T23:28:55.081Z,-5.35
2022-12-08T23:31:23.772Z,-5.15
2022-12-08T23:33:52.437Z,-5.24
2022-12-08T23:36:25.775Z,-5.12
2022-12-08T23:38:54.557Z,-5.17
2022-12-08T23:41:22.189Z,-5.15
2022-12-08T23:43:51.996Z,-5.14
2022-12-08T23:46:21.938Z,-5.32
2022-12-08T23:48:50.615Z,-5.26
2022-12-08T23:51:18.450Z,-5.31
2022-12-08T23:53:46.347Z,-5.06
2022-12-08T23:56:16.820Z,-5.08
2022-12-08T23:58:45.124Z,-5.07
